createdAt,value
2023-01-10T00:01:35.063Z,82.84
2023-01-10T00:04:37.952Z,83.09
2023-01-10T00:07:40.903Z,83.05
2023-01-10T00:10:43.939Z,83.16
2023-01-10T00:13:46.742Z,82.92
2023-01-10T00:16:49.541Z,82.98
2023-01-10T00:19:52.275Z,83.00
2023-01-10T00:22:55.154Z,82.85
2023-01-10T00:25:57.881Z,82.78
2023-01-10T00:29:00.699Z,82.38
2023-01-10T00:32:03.446Z,82.48
2023-01-10T00:35:06.891Z,82.17
2023-01-10T00:38:09.672Z,82.14
2023-01-10T00:41:32.458Z,82.19
2023-01-10T00:44:35.339Z,82.07
2023-01-10T00:47:38.326Z,81.79
2023-01-10T00:50:41.505Z,82.09
2023-01-10T00:53:44.322Z,82.00
2023-01-10T00:56:47.048Z,81.75
2023-01-10T00:59:50.140Z,82.18
2023-01-10T01:02:53.092Z,82.09
2023-01-10T01:05:56.510Z,82.41
2023-01-10T01:08:59.439Z,82.55
2023-01-10T01:12:02.159Z,82.55
2023-01-10T01:15:05.664Z,82.64
2023-01-10T01:18:08.818Z,82.72
2023-01-10T01:21:11.647Z,82.59
2023-01-10T01:24:14.417Z,82.37
2023-01-10T01:27:17.185Z,82.29
2023-01-10T01:30:19.975Z,82.44
2023-01-10T01:33:22.771Z,82.27
2023-01-10T01:36:25.596Z,82.69
2023-01-10T01:39:28.452Z,82.91
2023-01-10T01:42:34.632Z,83.01
2023-01-10T01:45:39.752Z,82.89
2023-01-10T01:48:43.832Z,82.90
2023-01-10T01:51:49.441Z,82.63
2023-01-10T01:54:57.608Z,82.67
2023-01-10T01:58:04.384Z,82.98
2023-01-10T02:01:08.015Z,83.07
2023-01-10T02:04:15.396Z,83.19
2023-01-10T02:07:18.847Z,83.38
2023-01-10T02:10:21.595Z,83.66
2023-01-10T02:13:26.337Z,83.75
2023-01-10T02:16:29.217Z,83.66
2023-01-10T02:19:43.317Z,83.97
2023-01-10T02:22:55.247Z,84.07
2023-01-10T02:26:11.471Z,83.94
2023-01-10T02:29:20.139Z,84.06
2023-01-10T02:32:43.854Z,83.98
2023-01-10T02:35:59.487Z,83.76
2023-01-10T02:39:11.672Z,83.97
2023-01-10T02:42:42.870Z,83.92
2023-01-10T02:46:11.759Z,83.79
2023-01-10T02:49:14.922Z,83.69
2023-01-10T02:52:28.191Z,83.53
2023-01-10T02:56:03.335Z,83.32
2023-01-10T02:59:24.284Z,83.42
2023-01-10T03:02:27.001Z,83.44
2023-01-10T03:06:07.870Z,83.70
2023-01-10T03:09:21.743Z,83.87
2023-01-10T03:12:42.994Z,83.63
2023-01-10T03:15:48.659Z,83.73
2023-01-10T03:18:58.180Z,84.05
2023-01-10T03:22:03.626Z,83.74
2023-01-10T03:25:10.445Z,83.84
2023-01-10T03:28:16.420Z,83.76
2023-01-10T03:31:29.068Z,83.84
2023-01-10T03:34:32.551Z,83.77
2023-01-10T03:37:39.288Z,83.82
2023-01-10T03:41:01.241Z,83.72
2023-01-10T03:44:45.103Z,83.85
2023-01-10T03:47:53.452Z,83.72
2023-01-10T03:51:00.410Z,83.63
2023-01-10T03:54:04.011Z,83.58
2023-01-10T03:57:07.980Z,83.77
2023-01-10T04:00:12.133Z,83.47
2023-01-10T04:03:16.340Z,83.54
2023-01-10T04:06:20.282Z,83.92
2023-01-10T04:09:23.477Z,83.75
2023-01-10T04:12:27.693Z,83.73
2023-01-10T04:15:31.474Z,83.89
2023-01-10T04:18:34.239Z,83.77
2023-01-10T04:21:37.005Z,83.91
2023-01-10T04:24:40.728Z,83.74
2023-01-10T04:27:43.607Z,83.91
2023-01-10T04:30:46.397Z,83.93
2023-01-10T04:33:49.192Z,83.89
2023-01-10T04:36:52.027Z,83.94
2023-01-10T04:39:54.774Z,83.86
2023-01-10T04:42:57.559Z,83.53
2023-01-10T04:46:00.392Z,83.94
2023-01-10T04:49:03.335Z,84.10
2023-01-10T04:52:06.124Z,83.98
2023-01-10T04:55:10.075Z,83.93
2023-01-10T04:58:13.254Z,84.19
2023-01-10T05:01:26.677Z,84.19
2023-01-10T05:04:29.549Z,83.97
2023-01-10T05:07:32.270Z,83.69
2023-01-10T05:10:35.352Z,83.69
2023-01-10T05:13:39.481Z,83.55
2023-01-10T05:16:42.388Z,83.51
2023-01-10T05:19:45.358Z,83.53
2023-01-10T05:22:49.540Z,83.58
2023-01-10T05:25:52.331Z,83.55
2023-01-10T05:28:55.123Z,83.37
2023-01-10T05:31:58.071Z,83.49
2023-01-10T05:35:00.943Z,83.63
2023-01-10T05:38:04.008Z,83.39
2023-01-10T05:41:06.835Z,83.43
2023-01-10T05:44:10.198Z,83.33
2023-01-10T05:47:13.262Z,83.30
2023-01-10T05:50:18.857Z,83.50
2023-01-10T05:53:21.887Z,83.53
2023-01-10T05:56:26.234Z,83.62
2023-01-10T05:59:28.980Z,83.70
2023-01-10T06:02:32.141Z,83.93
2023-01-10T06:05:35.255Z,83.90
2023-01-10T06:08:38.227Z,83.77
2023-01-10T06:11:41.102Z,83.64
2023-01-10T06:14:46.066Z,83.73
2023-01-10T06:17:48.908Z,83.73
2023-01-10T06:20:52.765Z,83.85
2023-01-10T06:23:55.557Z,83.61
2023-01-10T06:26:58.304Z,83.53
2023-01-10T06:30:01.536Z,83.38
2023-01-10T06:33:08.873Z,83.73
2023-01-10T06:36:12.015Z,83.33
2023-01-10T06:39:14.757Z,83.61
2023-01-10T06:42:17.789Z,83.87
2023-01-10T06:45:21.121Z,83.93
2023-01-10T06:48:23.937Z,83.57
2023-01-10T06:51:27.031Z,83.52
2023-01-10T06:54:29.998Z,83.44
2023-01-10T06:57:35.558Z,83.54
2023-01-10T07:00:38.529Z,83.71
2023-01-10T07:03:41.510Z,83.79
2023-01-10T07:06:44.578Z,83.90
2023-01-10T07:09:47.659Z,83.57
2023-01-10T07:12:50.367Z,83.62
2023-01-10T07:16:00.966Z,83.67
2023-01-10T07:19:03.737Z,83.85
2023-01-10T07:22:06.642Z,83.68
2023-01-10T07:25:10.149Z,84.02
2023-01-10T07:28:12.926Z,83.76
2023-01-10T07:31:16.496Z,83.90
2023-01-10T07:34:19.607Z,83.97
2023-01-10T07:37:22.460Z,83.92
2023-01-10T07:40:26.415Z,84.06
2023-01-10T07:43:32.234Z,83.72
2023-01-10T07:46:35.026Z,83.98
2023-01-10T07:49:37.879Z,83.98
2023-01-10T07:52:40.757Z,84.13
2023-01-10T07:55:45.809Z,83.84
2023-01-10T07:58:48.564Z,83.92
2023-01-10T08:01:51.515Z,83.98
2023-01-10T08:04:54.235Z,84.00
2023-01-10T08:08:00.420Z,84.11
2023-01-10T08:11:03.886Z,84.06
2023-01-10T08:14:06.703Z,84.03
2023-01-10T08:17:10.311Z,84.05
2023-01-10T08:20:13.103Z,84.10
2023-01-10T08:23:16.062Z,84.23
2023-01-10T08:26:19.362Z,84.16
2023-01-10T08:29:22.234Z,84.29
2023-01-10T08:32:25.212Z,84.07
2023-01-10T08:35:28.017Z,84.05
2023-01-10T08:38:30.875Z,83.49
2023-01-10T08:41:33.853Z,83.98
2023-01-10T08:44:36.939Z,84.09
2023-01-10T08:47:40.317Z,84.10
2023-01-10T08:50:43.167Z,84.00
2023-01-10T08:53:46.075Z,84.25
2023-01-10T08:56:48.942Z,84.50
2023-01-10T08:59:51.794Z,84.48
2023-01-10T09:02:54.732Z,84.57
2023-01-10T09:06:00.054Z,84.45
2023-01-10T09:09:03.106Z,84.22
2023-01-10T09:12:25.955Z,84.40
2023-01-10T09:15:41.068Z,84.10
2023-01-10T09:18:44.130Z,84.21
2023-01-10T09:21:46.988Z,83.90
2023-01-10T09:24:49.956Z,84.27
2023-01-10T09:27:57.793Z,84.05
2023-01-10T09:31:01.499Z,84.01
2023-01-10T09:34:04.423Z,83.94
2023-01-10T09:37:07.203Z,84.19
2023-01-10T09:40:16.011Z,83.96
2023-01-10T09:43:33.814Z,84.05
2023-01-10T09:47:00.841Z,84.46
2023-01-10T09:50:11.379Z,84.05
2023-01-10T09:53:20.700Z,83.86
2023-01-10T09:56:23.721Z,84.02
2023-01-10T09:59:35.588Z,83.92
2023-01-10T10:02:45.548Z,83.92
2023-01-10T10:05:51.461Z,84.09
2023-01-10T10:08:57.334Z,83.88
2023-01-10T10:12:10.563Z,83.88
2023-01-10T10:15:18.497Z,83.89
2023-01-10T10:18:40.183Z,84.14
2023-01-10T10:22:12.504Z,83.96
2023-01-10T10:25:34.126Z,83.92
2023-01-10T10:28:56.128Z,83.77
2023-01-10T10:32:05.006Z,83.88
2023-01-10T10:35:25.830Z,84.17
2023-01-10T10:38:39.380Z,83.98
2023-01-10T10:41:46.433Z,83.82
2023-01-10T10:44:54.722Z,83.95
2023-01-10T10:48:07.426Z,84.01
2023-01-10T10:51:23.700Z,83.87
2023-01-10T10:54:26.481Z,83.76
2023-01-10T10:57:31.514Z,83.55
2023-01-10T11:00:34.729Z,83.73
2023-01-10T11:04:15.739Z,83.75
2023-01-10T11:07:20.209Z,84.02
2023-01-10T11:10:37.065Z,84.30
2023-01-10T11:13:54.679Z,83.67
2023-01-10T11:17:18.868Z,83.50
2023-01-10T11:20:21.671Z,83.33
2023-01-10T11:23:49.865Z,83.31
2023-01-10T11:26:53.167Z,83.37
2023-01-10T11:30:00.654Z,83.01
2023-01-10T11:33:07.788Z,82.79
2023-01-10T11:36:14.269Z,82.69
2023-01-10T11:39:17.892Z,82.90
2023-01-10T11:42:29.953Z,82.71
2023-01-10T11:45:34.739Z,82.80
2023-01-10T11:49:09.049Z,82.87
2023-01-10T11:52:44.648Z,82.61
2023-01-10T11:55:48.849Z,82.62
2023-01-10T11:58:52.739Z,82.61
2023-01-10T12:01:55.641Z,82.76
2023-01-10T12:05:02.305Z,82.70
2023-01-10T12:08:07.991Z,82.79
2023-01-10T12:11:14.205Z,82.67
2023-01-10T12:14:20.934Z,82.84
2023-01-10T12:17:26.210Z,82.58
2023-01-10T12:20:31.758Z,82.50
2023-01-10T12:23:40.384Z,82.50
2023-01-10T12:30:11.538Z,82.32
2023-01-10T12:33:22.838Z,82.25
2023-01-10T12:36:46.165Z,82.17
2023-01-10T12:39:55.756Z,82.29
2023-01-10T12:43:24.187Z,82.14
2023-01-10T12:47:05.885Z,82.25
2023-01-10T12:50:10.494Z,82.32
2023-01-10T12:53:28.927Z,82.10
2023-01-10T12:56:32.640Z,81.88
2023-01-10T12:59:41.652Z,81.94
2023-01-10T13:02:47.190Z,82.02
2023-01-10T13:05:53.037Z,82.16
2023-01-10T13:08:58.231Z,81.92
2023-01-10T13:12:26.975Z,81.71
2023-01-10T13:15:35.232Z,81.75
2023-01-10T13:18:38.151Z,81.94
2023-01-10T13:21:42.824Z,81.72
2023-01-10T13:24:57.421Z,81.52
2023-01-10T13:28:22.725Z,81.69
2023-01-10T13:31:31.090Z,81.85
2023-01-10T13:34:36.327Z,81.91
2023-01-10T13:37:42.170Z,81.65
2023-01-10T13:41:02.169Z,81.51
2023-01-10T13:44:11.385Z,81.50
2023-01-10T13:47:34.047Z,81.65
2023-01-10T13:50:50.602Z,81.58
2023-01-10T13:54:01.718Z,81.79
2023-01-10T13:57:43.544Z,81.99
2023-01-10T14:01:13.988Z,82.17
2023-01-10T14:04:30.257Z,81.97
2023-01-10T14:07:51.421Z,82.10
2023-01-10T14:11:14.430Z,81.99
2023-01-10T14:14:38.133Z,82.02
2023-01-10T14:17:42.118Z,82.03
2023-01-10T14:20:45.313Z,82.23
2023-01-10T14:23:53.712Z,82.19
2023-01-10T14:27:00.957Z,82.05
2023-01-10T14:30:06.122Z,82.31
2023-01-10T14:33:21.749Z,82.34
2023-01-10T14:36:53.682Z,82.20
2023-01-10T14:39:56.705Z,82.42
2023-01-10T14:43:04.503Z,82.23
2023-01-10T14:46:23.080Z,82.40
2023-01-10T14:49:29.289Z,82.55
2023-01-10T14:52:33.229Z,82.39
2023-01-10T14:55:43.084Z,82.48
2023-01-10T14:58:46.027Z,82.46
2023-01-10T15:01:51.184Z,82.67
2023-01-10T15:05:00.994Z,82.71
2023-01-10T15:08:25.456Z,82.80
2023-01-10T15:11:30.488Z,82.76
2023-01-10T15:14:35.843Z,82.83
2023-01-10T15:17:40.018Z,82.86
2023-01-10T15:20:43.405Z,83.07
2023-01-10T15:23:47.200Z,82.85
2023-01-10T15:26:52.830Z,83.09
2023-01-10T15:29:56.828Z,82.85
2023-01-10T15:33:06.310Z,83.04
2023-01-10T15:36:15.912Z,83.03
2023-01-10T15:39:28.819Z,82.87
2023-01-10T15:42:31.904Z,82.79
2023-01-10T15:45:40.003Z,82.96
2023-01-10T15:48:44.022Z,82.86
2023-01-10T15:51:48.166Z,83.00
2023-01-10T15:54:50.982Z,83.04
2023-01-10T15:57:53.812Z,83.15
2023-01-10T16:00:59.021Z,83.14
2023-01-10T16:04:05.194Z,83.10
2023-01-10T16:07:16.753Z,83.15
2023-01-10T16:10:26.737Z,83.06
2023-01-10T16:13:33.172Z,83.31
2023-01-10T16:16:36.565Z,83.48
2023-01-10T16:19:39.429Z,83.54
2023-01-10T16:22:44.464Z,83.36
2023-01-10T16:25:51.026Z,83.63
2023-01-10T16:28:54.260Z,83.77
2023-01-10T16:31:57.149Z,83.76
2023-01-10T16:35:02.579Z,83.74
2023-01-10T16:38:05.322Z,83.73
2023-01-10T16:41:31.669Z,83.88
2023-01-10T16:44:34.849Z,83.75
2023-01-10T16:47:37.626Z,83.69
2023-01-10T16:50:42.040Z,83.73
2023-01-10T16:53:46.011Z,83.88
2023-01-10T16:56:49.626Z,83.82
2023-01-10T16:59:52.409Z,84.18
2023-01-10T17:02:56.935Z,83.94
2023-01-10T17:06:00.182Z,84.30
2023-01-10T17:09:03.420Z,84.04
2023-01-10T17:12:14.465Z,83.81
2023-01-10T17:15:17.339Z,83.89
2023-01-10T17:18:20.197Z,83.94
2023-01-10T17:21:23.748Z,83.94
2023-01-10T17:24:27.094Z,83.87
2023-01-10T17:27:29.884Z,83.87
2023-01-10T17:30:34.891Z,83.79
2023-01-10T17:33:37.689Z,83.78
2023-01-10T17:36:40.567Z,83.79
2023-01-10T17:39:43.327Z,84.22
2023-01-10T17:42:46.412Z,84.25
2023-01-10T17:45:51.357Z,83.81
2023-01-10T17:48:54.442Z,84.26
2023-01-10T17:51:58.866Z,83.91
2023-01-10T17:55:03.491Z,83.81
2023-01-10T17:58:06.255Z,84.31
2023-01-10T18:01:18.002Z,84.17
2023-01-10T18:04:20.858Z,83.94
2023-01-10T18:07:23.642Z,84.14
2023-01-10T18:10:26.564Z,84.12
2023-01-10T18:13:32.926Z,84.25
2023-01-10T18:16:36.090Z,84.13
2023-01-10T18:19:39.219Z,84.25
2023-01-10T18:23:05.011Z,84.17
2023-01-10T18:26:10.937Z,84.24
2023-01-10T18:29:13.921Z,84.23
2023-01-10T18:32:17.930Z,84.12
2023-01-10T18:35:22.471Z,84.34
2023-01-10T18:38:25.418Z,84.29
2023-01-10T18:41:28.171Z,84.21
2023-01-10T18:44:31.083Z,84.39
2023-01-10T18:47:34.340Z,84.29
2023-01-10T18:50:38.067Z,84.04
2023-01-10T18:53:42.466Z,84.07
2023-01-10T18:56:45.177Z,84.12
2023-01-10T18:59:48.311Z,84.04
2023-01-10T19:02:53.195Z,84.33
2023-01-10T19:06:00.326Z,84.13
2023-01-10T19:09:03.582Z,84.20
2023-01-10T19:12:06.553Z,84.20
2023-01-10T19:15:10.207Z,84.26
2023-01-10T19:18:13.088Z,84.32
2023-01-10T19:21:16.102Z,84.53
2023-01-10T19:24:25.174Z,84.35
2023-01-10T19:27:28.786Z,84.34
2023-01-10T19:30:31.643Z,84.27
2023-01-10T19:33:34.970Z,84.45
2023-01-10T19:36:39.619Z,84.61
2023-01-10T19:39:42.555Z,84.40
2023-01-10T19:42:45.300Z,84.55
2023-01-10T19:45:48.084Z,84.48
2023-01-10T19:48:50.904Z,84.46
2023-01-10T19:51:56.209Z,84.55
2023-01-10T19:54:59.180Z,84.49
2023-01-10T19:58:02.239Z,84.66
2023-01-10T20:01:10.047Z,84.54
2023-01-10T20:04:14.056Z,84.73
2023-01-10T20:07:18.652Z,84.72
2023-01-10T20:10:21.608Z,84.82
2023-01-10T20:13:24.884Z,84.96
2023-01-10T20:16:27.725Z,84.86
2023-01-10T20:19:30.741Z,84.85
2023-01-10T20:22:33.576Z,85.07
2023-01-10T20:25:36.342Z,85.15
2023-01-10T20:28:40.366Z,85.03
2023-01-10T20:31:46.719Z,84.85
2023-01-10T20:34:51.017Z,85.07
2023-01-10T20:37:54.011Z,84.87
2023-01-10T20:41:04.498Z,84.87
2023-01-10T20:44:07.438Z,84.87
2023-01-10T20:47:10.186Z,84.73
2023-01-10T20:50:13.194Z,85.06
2023-01-10T20:53:16.185Z,84.84
2023-01-10T20:56:22.110Z,84.79
2023-01-10T20:59:27.283Z,84.90
2023-01-10T21:02:30.113Z,84.95
2023-01-10T21:05:38.168Z,84.92
2023-01-10T21:08:41.357Z,84.82
2023-01-10T21:11:57.907Z,85.06
2023-01-10T21:15:05.359Z,84.95
2023-01-10T21:18:08.485Z,84.90
2023-01-10T21:21:13.370Z,84.97
2023-01-10T21:24:16.261Z,85.06
2023-01-10T21:27:19.036Z,85.15
2023-01-10T21:30:22.045Z,85.08
2023-01-10T21:33:26.663Z,85.02
2023-01-10T21:36:29.401Z,84.98
2023-01-10T21:39:32.168Z,84.98
2023-01-10T21:42:34.989Z,84.95
2023-01-10T21:45:37.806Z,85.27
2023-01-10T21:48:40.540Z,85.05
2023-01-10T21:51:45.035Z,84.82
2023-01-10T21:54:47.908Z,84.98
2023-01-10T21:57:50.986Z,85.06
2023-01-10T22:00:59.219Z,85.27
2023-01-10T22:04:02.397Z,85.09
2023-01-10T22:07:05.283Z,85.12
2023-01-10T22:10:09.293Z,85.05
2023-01-10T22:13:12.009Z,85.20
2023-01-10T22:16:14.932Z,85.10
2023-01-10T22:19:19.843Z,85.30
2023-01-10T22:22:22.758Z,85.24
2023-01-10T22:25:25.585Z,84.99
2023-01-10T22:28:28.407Z,84.90
2023-01-10T22:31:31.312Z,85.03
2023-01-10T22:34:34.445Z,85.05
2023-01-10T22:37:37.199Z,85.06
2023-01-10T22:40:39.909Z,85.19
2023-01-10T22:43:42.653Z,84.80
2023-01-10T22:46:46.667Z,85.05
2023-01-10T22:49:49.780Z,84.81
2023-01-10T22:52:52.538Z,84.87
2023-01-10T22:55:55.682Z,85.08
2023-01-10T22:58:58.618Z,85.06
2023-01-10T23:02:01.432Z,84.75
2023-01-10T23:05:04.830Z,84.74
2023-01-10T23:08:07.617Z,84.49
2023-01-10T23:11:12.597Z,84.48
2023-01-10T23:14:15.355Z,84.71
2023-01-10T23:17:18.192Z,84.90
2023-01-10T23:20:20.989Z,84.83
2023-01-10T23:23:24.573Z,84.90
2023-01-10T23:26:28.180Z,84.75
2023-01-10T23:29:31.375Z,84.68
2023-01-10T23:32:34.239Z,84.68
2023-01-10T23:35:36.957Z,84.27
2023-01-10T23:38:39.979Z,84.30
2023-01-10T23:41:42.760Z,84.46
2023-01-10T23:44:45.658Z,84.35
2023-01-10T23:47:48.436Z,84.43
2023-01-10T23:50:51.651Z,84.49
2023-01-10T23:53:54.418Z,84.40
2023-01-10T23:56:57.352Z,84.60
